< < Back
Terminal Aerodrome Forecast


Current Version              Previous Versions:   1  2  3  4  5  6  7  8  9  

Terminal Aerodrome Forecast

409
FTUS42 KTAE 280521
TAFTLH
TAF
KTLH 280521Z 2806/2906 00000KT P6SM FEW090
     FM281500 VRB04KT P6SM SCT040
     FM290000 22003KT P6SM SCT250=

Latest METAR

448
SAUS80 KWBC 290500
MTRTLH
METAR KTLH 290453Z AUTO 00000KT 10SM CLR 29/25 A2996 RMK AO2 SLP145
T02890250 403780244


USA.gov is the U.S. government's official web portal to all federal, state and local government web resources and services.